Time;durP1;ratioP1;P1;durP2;ratioP2;P2;SDS_P1;SDS_P2;PMS_P1;PMS_P2;Temp;Humidity;BMP_temperature;BMP_pressure;BME280_temperature;BME280_humidity;BME280_pressure;Samples;Min_cycle;Max_cycle;Signal;HPM_P1;HPM_P2
2023/06/08 00:00:24;;;;;;;9.98;9.07;;;;;;;;;;5113662;28;20523;-84
2023/06/08 00:02:55;;;;;;;9.55;8.75;;;;;;;;;;5125493;28;20055;-84
2023/06/08 00:05:23;;;;;;;12.27;8.95;;;;;;;;;;5114182;28;20438;-85
2023/06/08 00:07:50;;;;;;;9.25;8.45;;;;;;;;;;5113016;28;20063;-85
2023/06/08 00:10:17;;;;;;;9.65;8.68;;;;;;;;;;5112826;28;20051;-85
2023/06/08 00:12:47;;;;;;;9.30;8.40;;;;;;;;;;5113062;28;20102;-85
2023/06/08 00:15:17;;;;;;;9.55;8.77;;;;;;;;;;5113458;28;20094;-85
2023/06/08 00:17:45;;;;;;;9.20;8.32;;;;;;;;;;5112820;28;20058;-85
2023/06/08 00:20:12;;;;;;;10.68;8.73;;;;;;;;;;5112404;28;20048;-85
2023/06/08 00:22:42;;;;;;;9.02;8.27;;;;;;;;;;5112384;28;20047;-85
2023/06/08 00:25:10;;;;;;;8.95;7.85;;;;;;;;;;5112892;28;20061;-85
2023/06/08 00:27:37;;;;;;;9.15;8.30;;;;;;;;;;5113942;28;20051;-85
2023/06/08 00:30:05;;;;;;;10.73;8.05;;;;;;;;;;5112439;28;20125;-85
2023/06/08 00:32:33;;;;;;;9.00;8.13;;;;;;;;;;5111988;28;20063;-85
2023/06/08 00:35:00;;;;;;;8.38;7.68;;;;;;;;;;5112515;28;20055;-85
2023/06/08 00:37:27;;;;;;;8.90;7.72;;;;;;;;;;5112368;28;20484;-85
2023/06/08 00:39:54;;;;;;;10.57;8.70;;;;;;;;;;5112504;28;20051;-85
2023/06/08 00:42:21;;;;;;;8.65;7.78;;;;;;;;;;5111928;28;20560;-85
2023/06/08 00:44:51;;;;;;;8.30;7.70;;;;;;;;;;5112634;28;20062;-86
2023/06/08 00:47:18;;;;;;;10.73;8.45;;;;;;;;;;5112345;28;20122;-85
2023/06/08 00:49:46;;;;;;;11.32;8.50;;;;;;;;;;5113514;28;20048;-85
2023/06/08 00:52:14;;;;;;;10.02;8.93;;;;;;;;;;5112284;28;20070;-85
2023/06/08 00:54:43;;;;;;;9.35;8.25;;;;;;;;;;5112322;28;20628;-85
2023/06/08 00:57:10;;;;;;;8.85;7.70;;;;;;;;;;5113210;28;20051;-85
2023/06/08 00:59:38;;;;;;;7.95;7.18;;;;;;;;;;5113428;28;20101;-85
2023/06/08 01:02:05;;;;;;;9.82;7.72;;;;;;;;;;5113005;28;20100;-85
2023/06/08 01:04:35;;;;;;;8.63;7.80;;;;;;;;;;5112253;28;20047;-86
2023/06/08 01:07:14;;;;;;;8.07;7.32;;;;;;;;;;5112438;28;20100;-85
2023/06/08 01:09:50;;;;;;;9.52;7.85;;;;;;;;;;5112397;28;20081;-86
2023/06/08 01:12:29;;;;;;;8.68;7.78;;;;;;;;;;5112093;28;20043;-85
2023/06/08 01:15:08;;;;;;;9.27;8.00;;;;;;;;;;5113051;28;20100;-85
2023/06/08 01:17:40;;;;;;;8.38;7.57;;;;;;;;;;5117109;28;20060;-85
2023/06/08 01:20:09;;;;;;;8.43;7.63;;;;;;;;;;5121456;28;20093;-85
2023/06/08 01:22:56;;;;;;;8.60;7.45;;;;;;;;;;5111725;28;20058;-85
2023/06/08 01:25:30;;;;;;;8.25;7.45;;;;;;;;;;5111902;28;20067;-85
2023/06/08 01:28:12;;;;;;;7.70;7.07;;;;;;;;;;5115444;28;20074;-85
2023/06/08 01:30:43;;;;;;;10.80;7.53;;;;;;;;;;5115785;28;20067;-85
2023/06/08 01:33:13;;;;;;;9.20;8.30;;;;;;;;;;5115946;28;20055;-85
2023/06/08 01:35:41;;;;;;;8.63;7.93;;;;;;;;;;5115577;28;20100;-85
2023/06/08 01:38:28;;;;;;;8.68;7.88;;;;;;;;;;5115810;28;20484;-85
2023/06/08 01:40:57;;;;;;;9.05;8.23;;;;;;;;;;5115050;28;20048;-85
2023/06/08 01:43:26;;;;;;;9.82;8.18;;;;;;;;;;5115570;28;20048;-85
2023/06/08 01:45:58;;;;;;;9.80;8.32;;;;;;;;;;5116612;28;20063;-85
2023/06/08 01:48:26;;;;;;;9.48;8.10;;;;;;;;;;5115619;28;20044;-85
2023/06/08 01:50:54;;;;;;;9.07;8.27;;;;;;;;;;5115372;28;20051;-85
2023/06/08 01:53:21;;;;;;;9.07;8.20;;;;;;;;;;5115351;28;20051;-85
2023/06/08 01:55:49;;;;;;;8.70;7.97;;;;;;;;;;5115540;28;20047;-85
2023/06/08 01:58:17;;;;;;;9.40;8.45;;;;;;;;;;5116505;28;20047;-86
2023/06/08 02:00:44;;;;;;;8.75;7.85;;;;;;;;;;5115346;28;20060;-85
2023/06/08 02:03:11;;;;;;;8.45;7.65;;;;;;;;;;5116058;28;20051;-84
2023/06/08 02:05:39;;;;;;;10.38;8.07;;;;;;;;;;5115043;28;20051;-85
2023/06/08 02:08:06;;;;;;;8.63;7.72;;;;;;;;;;5114867;28;20044;-85
2023/06/08 02:10:33;;;;;;;9.38;8.48;;;;;;;;;;5114693;28;20100;-85
2023/06/08 02:13:00;;;;;;;8.70;7.88;;;;;;;;;;5114588;28;20541;-85
2023/06/08 02:15:28;;;;;;;9.48;8.68;;;;;;;;;;5114804;28;20061;-85
2023/06/08 02:17:58;;;;;;;9.55;7.70;;;;;;;;;;5114733;28;20073;-85
2023/06/08 02:20:26;;;;;;;9.35;8.45;;;;;;;;;;5114550;28;20522;-85
2023/06/08 02:22:53;;;;;;;9.90;8.55;;;;;;;;;;5115142;28;20121;-84
2023/06/08 02:25:21;;;;;;;9.02;8.27;;;;;;;;;;5114618;28;20051;-85
2023/06/08 02:27:48;;;;;;;9.88;8.88;;;;;;;;;;5114396;28;20274;-85
2023/06/08 02:30:16;;;;;;;11.68;8.63;;;;;;;;;;5114571;28;20050;-85
2023/06/08 02:32:45;;;;;;;9.60;8.73;;;;;;;;;;5115422;28;20062;-85
2023/06/08 02:35:13;;;;;;;8.93;8.13;;;;;;;;;;5128217;28;20058;-85
2023/06/08 02:37:42;;;;;;;8.98;8.18;;;;;;;;;;5114391;28;20109;-85
2023/06/08 02:40:10;;;;;;;8.80;8.00;;;;;;;;;;5113583;28;20051;-85
2023/06/08 02:42:37;;;;;;;9.15;8.25;;;;;;;;;;5115203;28;20055;-85
2023/06/08 02:45:05;;;;;;;10.52;8.48;;;;;;;;;;5115124;28;20492;-85
2023/06/08 02:47:32;;;;;;;9.75;7.75;;;;;;;;;;5114180;28;20445;-84
2023/06/08 02:49:59;;;;;;;8.98;8.18;;;;;;;;;;5114184;28;20043;-85
2023/06/08 02:52:26;;;;;;;8.43;7.72;;;;;;;;;;5114871;28;20104;-85
2023/06/08 02:54:54;;;;;;;8.23;7.45;;;;;;;;;;5113681;28;20044;-84
2023/06/08 02:57:21;;;;;;;9.00;8.10;;;;;;;;;;5113839;28;20392;-85
2023/06/08 02:59:48;;;;;;;8.68;7.88;;;;;;;;;;5113969;28;20081;-85
2023/06/08 03:02:16;;;;;;;9.82;8.15;;;;;;;;;;5113490;28;20079;-85
2023/06/08 03:04:44;;;;;;;10.55;8.68;;;;;;;;;;5113637;28;20077;-85
2023/06/08 03:07:15;;;;;;;10.23;7.78;;;;;;;;;;5113803;28;20055;-85
2023/06/08 03:09:42;;;;;;;8.75;8.00;;;;;;;;;;5113924;28;20047;-85
2023/06/08 03:12:12;;;;;;;11.43;7.80;;;;;;;;;;5113366;28;20044;-84
2023/06/08 03:14:40;;;;;;;8.80;8.00;;;;;;;;;;5114852;28;20125;-85
2023/06/08 03:17:08;;;;;;;9.18;8.20;;;;;;;;;;5113377;28;20056;-84
2023/06/08 03:19:35;;;;;;;8.98;8.07;;;;;;;;;;5113753;28;20043;-84
2023/06/08 03:22:04;;;;;;;8.75;8.05;;;;;;;;;;5113096;28;20105;-85
2023/06/08 03:24:32;;;;;;;12.68;7.60;;;;;;;;;;5113463;28;20090;-85
2023/06/08 03:27:00;;;;;;;9.68;8.43;;;;;;;;;;5112887;28;20388;-85
2023/06/08 03:29:28;;;;;;;8.30;7.68;;;;;;;;;;5112984;28;20385;-85
2023/06/08 03:31:55;;;;;;;9.75;8.10;;;;;;;;;;5112792;28;20222;-85
2023/06/08 03:34:25;;;;;;;8.70;7.90;;;;;;;;;;5112941;28;20051;-84
2023/06/08 03:36:53;;;;;;;8.57;7.72;;;;;;;;;;5113118;28;20044;-85
2023/06/08 03:39:21;;;;;;;9.50;8.60;;;;;;;;;;5113031;28;20097;-85
2023/06/08 03:41:48;;;;;;;8.07;7.28;;;;;;;;;;5114018;28;20077;-85
2023/06/08 03:44:15;;;;;;;11.10;8.30;;;;;;;;;;5113809;28;20048;-85
2023/06/08 03:46:43;;;;;;;13.48;8.40;;;;;;;;;;5114318;28;20048;-85
2023/06/08 03:49:10;;;;;;;9.40;8.50;;;;;;;;;;5117312;28;20115;-86
2023/06/08 03:51:37;;;;;;;8.20;7.38;;;;;;;;;;5117572;28;20047;-85
2023/06/08 03:54:05;;;;;;;9.63;8.20;;;;;;;;;;5112619;28;20548;-85
2023/06/08 03:56:32;;;;;;;10.68;8.93;;;;;;;;;;5112717;28;20047;-85
2023/06/08 03:59:01;;;;;;;12.85;8.95;;;;;;;;;;5112492;28;20043;-85
2023/06/08 04:01:30;;;;;;;10.63;8.68;;;;;;;;;;5112330;28;20093;-85
2023/06/08 04:03:57;;;;;;;13.82;8.48;;;;;;;;;;5113768;28;20135;-84
2023/06/08 04:06:33;;;;;;;9.57;8.57;;;;;;;;;;5113433;28;20434;-85
2023/06/08 04:09:01;;;;;;;10.68;8.52;;;;;;;;;;5112616;28;20052;-85
2023/06/08 04:11:28;;;;;;;10.43;9.25;;;;;;;;;;5112401;28;20055;-86
2023/06/08 04:13:55;;;;;;;8.57;7.88;;;;;;;;;;5112781;28;20416;-85
2023/06/08 04:16:22;;;;;;;18.67;9.15;;;;;;;;;;5113724;28;20097;-85
2023/06/08 04:18:50;;;;;;;12.27;9.02;;;;;;;;;;5112647;28;20051;-85
2023/06/08 04:21:17;;;;;;;15.23;9.90;;;;;;;;;;5112430;28;20067;-85
2023/06/08 04:23:46;;;;;;;9.98;8.93;;;;;;;;;;5112576;28;20499;-85
2023/06/08 04:26:14;;;;;;;13.20;9.45;;;;;;;;;;5113619;28;20043;-85
2023/06/08 04:28:41;;;;;;;10.30;9.13;;;;;;;;;;5113447;28;20151;-85
2023/06/08 04:31:09;;;;;;;13.90;11.00;;;;;;;;;;5112365;28;20048;-85
2023/06/08 04:33:36;;;;;;;14.38;10.77;;;;;;;;;;5112662;28;20047;-85
2023/06/08 04:36:04;;;;;;;10.85;9.45;;;;;;;;;;5112310;28;20100;-85
2023/06/08 04:38:31;;;;;;;10.82;9.77;;;;;;;;;;5112384;28;20453;-84
2023/06/08 04:41:01;;;;;;;11.15;10.18;;;;;;;;;;5112083;28;20051;-85
2023/06/08 04:43:30;;;;;;;11.35;10.13;;;;;;;;;;5112329;28;20075;-85
2023/06/08 04:45:59;;;;;;;10.63;9.52;;;;;;;;;;5112306;28;20043;-84
2023/06/08 04:48:27;;;;;;;10.02;9.07;;;;;;;;;;5112329;28;20088;-85
2023/06/08 04:50:55;;;;;;;10.95;9.90;;;;;;;;;;5112152;28;20071;-85
2023/06/08 04:53:23;;;;;;;11.23;9.23;;;;;;;;;;5112299;28;20051;-85
2023/06/08 04:55:56;;;;;;;10.05;9.15;;;;;;;;;;5112253;28;20051;-85
2023/06/08 04:58:24;;;;;;;;;;;;;;;;;;5112637;28;20116;-85
2023/06/08 05:00:52;;;;;;;10.98;9.95;;;;;;;;;;5112095;28;19931;-84
2023/06/08 05:03:20;;;;;;;10.45;9.55;;;;;;;;;;5114781;28;20074;-85
2023/06/08 05:05:47;;;;;;;11.68;9.57;;;;;;;;;;5118839;28;20096;-84
2023/06/08 05:08:15;;;;;;;14.05;10.52;;;;;;;;;;5116782;28;20144;-85
2023/06/08 05:10:42;;;;;;;10.35;9.32;;;;;;;;;;5096540;28;20101;-85
2023/06/08 05:13:09;;;;;;;14.45;9.85;;;;;;;;;;5095557;28;20462;-85
2023/06/08 05:15:37;;;;;;;12.00;10.25;;;;;;;;;;5095898;28;20473;-85
2023/06/08 05:18:04;;;;;;;13.07;9.60;;;;;;;;;;5096682;28;20044;-85
2023/06/08 05:20:32;;;;;;;11.55;9.68;;;;;;;;;;5096764;28;20548;-85
2023/06/08 05:22:59;;;;;;;12.98;10.05;;;;;;;;;;5095141;28;20048;-84
2023/06/08 05:25:26;;;;;;;10.68;9.60;;;;;;;;;;5096771;28;20043;-85
2023/06/08 05:27:54;;;;;;;12.10;10.38;;;;;;;;;;5095473;28;20044;-85
2023/06/08 05:30:22;;;;;;;12.70;10.18;;;;;;;;;;5095310;28;20048;-84
2023/06/08 05:32:49;;;;;;;10.90;9.75;;;;;;;;;;5095112;28;20091;-85
2023/06/08 05:35:16;;;;;;;10.88;9.88;;;;;;;;;;5096362;28;20055;-84
2023/06/08 05:37:44;;;;;;;11.48;10.15;;;;;;;;;;5095198;28;20160;-84
2023/06/08 05:40:11;;;;;;;10.95;10.05;;;;;;;;;;5095367;28;20068;-85
2023/06/08 05:42:38;;;;;;;11.57;10.38;;;;;;;;;;5094982;28;20062;-85
2023/06/08 05:45:06;;;;;;;10.73;9.73;;;;;;;;;;5096019;28;20458;-84
2023/06/08 05:47:33;;;;;;;12.15;10.07;;;;;;;;;;5095016;28;20048;-85
2023/06/08 05:50:01;;;;;;;13.95;9.88;;;;;;;;;;5094873;28;20083;-85
2023/06/08 05:52:30;;;;;;;12.68;9.70;;;;;;;;;;5096060;28;20046;-85
2023/06/08 05:54:58;;;;;;;18.58;10.43;;;;;;;;;;5096000;28;20060;-85
2023/06/08 05:57:25;;;;;;;16.15;10.18;;;;;;;;;;5095979;28;20164;-85
2023/06/08 05:59:53;;;;;;;24.67;11.13;;;;;;;;;;5094714;28;20501;-85
2023/06/08 06:02:20;;;;;;;22.73;10.88;;;;;;;;;;5094647;28;20097;-85
2023/06/08 06:04:47;;;;;;;11.20;9.95;;;;;;;;;;5094668;28;20050;-85
2023/06/08 06:07:15;;;;;;;15.25;10.07;;;;;;;;;;5095899;28;20052;-85
2023/06/08 06:09:42;;;;;;;11.35;9.13;;;;;;;;;;5095816;28;20445;-84
2023/06/08 06:12:10;;;;;;;10.73;9.35;;;;;;;;;;5095392;28;20062;-84
2023/06/08 06:14:39;;;;;;;9.70;8.55;;;;;;;;;;5094588;28;20048;-84
2023/06/08 06:17:07;;;;;;;9.75;8.85;;;;;;;;;;5094461;28;20052;-85
2023/06/08 06:19:38;;;;;;;9.82;8.45;;;;;;;;;;5096156;28;20139;-85
2023/06/08 06:22:06;;;;;;;11.55;8.27;;;;;;;;;;5096445;28;20044;-85
2023/06/08 06:24:33;;;;;;;10.20;8.68;;;;;;;;;;5095726;28;20477;-85
2023/06/08 06:27:01;;;;;;;9.18;8.38;;;;;;;;;;5094268;28;20563;-85
2023/06/08 06:29:29;;;;;;;13.30;9.25;;;;;;;;;;5094319;28;20109;-85
2023/06/08 06:31:56;;;;;;;23.58;9.75;;;;;;;;;;5093960;28;20105;-85
2023/06/08 06:34:23;;;;;;;9.82;7.60;;;;;;;;;;5094139;28;20043;-85
2023/06/08 06:36:51;;;;;;;10.00;7.63;;;;;;;;;;5094158;28;20051;-85
2023/06/08 06:39:19;;;;;;;9.70;7.65;;;;;;;;;;5094043;28;20048;-85
2023/06/08 06:41:46;;;;;;;9.07;7.90;;;;;;;;;;5094076;28;20052;-85
2023/06/08 06:44:13;;;;;;;18.02;8.55;;;;;;;;;;5093991;28;20078;-85
2023/06/08 06:46:41;;;;;;;9.45;8.02;;;;;;;;;;5093995;28;20044;-85
2023/06/08 06:49:08;;;;;;;8.18;7.47;;;;;;;;;;5093613;28;20415;-84
2023/06/08 06:51:42;;;;;;;10.35;7.75;;;;;;;;;;5094652;28;20439;-84
2023/06/08 06:54:09;;;;;;;8.00;7.25;;;;;;;;;;5093960;28;20052;-85
2023/06/08 06:56:36;;;;;;;7.82;7.13;;;;;;;;;;5093111;28;20048;-85
2023/06/08 06:59:05;;;;;;;7.25;6.55;;;;;;;;;;5093647;28;20117;-85
2023/06/08 07:01:35;;;;;;;7.43;6.82;;;;;;;;;;5093647;28;20097;-86
2023/06/08 07:04:04;;;;;;;8.30;6.80;;;;;;;;;;5093535;28;20134;-85
2023/06/08 07:06:32;;;;;;;10.13;6.65;;;;;;;;;;5093562;28;20060;-85
2023/06/08 07:09:00;;;;;;;7.70;6.82;;;;;;;;;;5093653;28;20052;-85
2023/06/08 07:11:27;;;;;;;7.65;6.93;;;;;;;;;;5092123;28;20396;-85
2023/06/08 07:13:54;;;;;;;12.75;7.22;;;;;;;;;;5093793;28;20135;-85
2023/06/08 07:16:22;;;;;;;8.75;6.40;;;;;;;;;;5093510;28;20097;-86
2023/06/08 07:18:53;;;;;;;8.52;6.38;;;;;;;;;;5093731;28;20048;-85
2023/06/08 07:21:21;;;;;;;7.80;6.13;;;;;;;;;;5094275;28;20106;-85
2023/06/08 07:23:57;;;;;;;8.20;6.10;;;;;;;;;;5093469;28;20083;-86
2023/06/08 07:26:45;;;;;;;6.80;6.15;;;;;;;;;;5092973;28;20052;-85
2023/06/08 07:29:14;;;;;;;7.18;6.25;;;;;;;;;;5093248;28;20123;-85
2023/06/08 07:31:41;;;;;;;6.55;5.97;;;;;;;;;;5093749;28;20080;-85
2023/06/08 07:34:08;;;;;;;10.90;6.05;;;;;;;;;;5092751;28;20051;-83
2023/06/08 07:36:36;;;;;;;7.32;5.93;;;;;;;;;;5094866;28;20556;-83
2023/06/08 07:39:04;;;;;;;6.43;5.80;;;;;;;;;;5097690;28;20044;-83
2023/06/08 07:41:32;;;;;;;6.68;6.18;;;;;;;;;;5093051;28;20055;-84
2023/06/08 07:44:02;;;;;;;8.40;6.15;;;;;;;;;;5092634;28;20147;-83
2023/06/08 07:46:31;;;;;;;7.80;6.93;;;;;;;;;;5092511;28;20476;-82
2023/06/08 07:48:58;;;;;;;9.88;6.43;;;;;;;;;;5092813;28;20048;-83
2023/06/08 07:51:25;;;;;;;10.63;6.95;;;;;;;;;;5093933;28;20040;-83
2023/06/08 07:53:52;;;;;;;9.27;7.15;;;;;;;;;;5094043;28;20091;-84
2023/06/08 07:56:21;;;;;;;12.52;7.07;;;;;;;;;;5092601;28;20480;-83
2023/06/08 07:58:48;;;;;;;8.88;6.57;;;;;;;;;;5092649;28;20074;-83
2023/06/08 08:01:16;;;;;;;9.40;7.15;;;;;;;;;;5092229;28;20048;-83
2023/06/08 08:03:43;;;;;;;7.97;6.20;;;;;;;;;;5093557;28;20087;-83
2023/06/08 08:06:13;;;;;;;9.13;5.80;;;;;;;;;;5092271;28;20105;-84
2023/06/08 08:08:40;;;;;;;11.10;6.53;;;;;;;;;;5093785;28;20075;-84
2023/06/08 08:11:08;;;;;;;11.23;5.82;;;;;;;;;;5092264;28;20048;-83
2023/06/08 08:13:35;;;;;;;7.88;5.47;;;;;;;;;;5093241;28;20078;-83
2023/06/08 08:16:03;;;;;;;7.85;5.30;;;;;;;;;;5092398;28;20076;-83
2023/06/08 08:18:30;;;;;;;5.28;4.78;;;;;;;;;;5092208;28;20461;-84
2023/06/08 08:20:57;;;;;;;5.55;4.90;;;;;;;;;;5093544;28;20102;-84
2023/06/08 08:23:24;;;;;;;4.35;3.95;;;;;;;;;;5092594;28;20392;-83
2023/06/08 08:25:52;;;;;;;5.47;4.88;;;;;;;;;;5092216;28;20052;-84
2023/06/08 08:28:20;;;;;;;11.45;4.50;;;;;;;;;;5092249;28;20489;-83
2023/06/08 08:30:47;;;;;;;5.43;4.25;;;;;;;;;;5092076;28;20400;-83
2023/06/08 08:33:14;;;;;;;5.22;4.72;;;;;;;;;;5093297;28;20105;-83
2023/06/08 08:35:44;;;;;;;5.57;5.00;;;;;;;;;;5092221;28;20511;-85
2023/06/08 08:38:11;;;;;;;7.40;4.93;;;;;;;;;;5092122;28;20060;-85
2023/06/08 08:40:40;;;;;;;5.70;4.78;;;;;;;;;;5093594;28;20554;-85
2023/06/08 08:43:19;;;;;;;5.90;4.65;;;;;;;;;;5092412;28;20048;-84
2023/06/08 08:45:46;;;;;;;4.53;3.83;;;;;;;;;;5092614;28;20492;-85
2023/06/08 08:48:17;;;;;;;20.13;5.40;;;;;;;;;;5092866;28;20044;-85
2023/06/08 08:50:49;;;;;;;5.45;4.57;;;;;;;;;;5092795;28;20052;-84
2023/06/08 08:53:17;;;;;;;5.70;4.53;;;;;;;;;;5096106;28;20052;-85
2023/06/08 08:55:48;;;;;;;6.65;4.03;;;;;;;;;;5092551;28;20563;-87
2023/06/08 08:58:18;;;;;;;11.32;4.53;;;;;;;;;;5092397;28;20048;-85
2023/06/08 09:00:50;;;;;;;5.40;3.65;;;;;;;;;;5092088;28;20466;-84
2023/06/08 09:03:17;;;;;;;7.93;4.38;;;;;;;;;;5092296;28;20048;-85
2023/06/08 09:05:45;;;;;;;4.80;4.35;;;;;;;;;;5092078;28;20079;-83
2023/06/08 09:08:12;;;;;;;5.57;4.32;;;;;;;;;;5092305;28;20067;-85
2023/06/08 09:10:39;;;;;;;4.53;4.22;;;;;;;;;;5091963;28;20052;-83
2023/06/08 09:13:07;;;;;;;4.80;4.28;;;;;;;;;;5092344;28;20051;-85
2023/06/08 09:15:37;;;;;;;6.57;3.97;;;;;;;;;;5093118;28;20048;-85
2023/06/08 09:18:15;;;;;;;5.32;4.82;;;;;;;;;;5092142;28;20059;-85
2023/06/08 09:20:43;;;;;;;10.23;4.75;;;;;;;;;;5092078;28;20059;-85
2023/06/08 09:23:18;;;;;;;8.57;5.15;;;;;;;;;;5091877;28;20044;-86
2023/06/08 09:25:47;;;;;;;7.22;4.70;;;;;;;;;;5092295;28;20408;-86
2023/06/08 09:28:18;;;;;;;7.53;4.70;;;;;;;;;;5092369;28;20052;-85
2023/06/08 09:30:48;;;;;;;5.70;4.40;;;;;;;;;;5091838;28;20048;-85
2023/06/08 09:33:20;;;;;;;5.30;4.80;;;;;;;;;;5092356;28;20076;-88
2023/06/08 09:35:48;;;;;;;15.57;5.68;;;;;;;;;;5092064;28;20089;-84
2023/06/08 09:38:19;;;;;;;8.63;4.57;;;;;;;;;;5092966;28;20125;-84
2023/06/08 09:40:47;;;;;;;9.80;4.90;;;;;;;;;;5092115;28;20048;-85
2023/06/08 09:43:29;;;;;;;7.85;4.70;;;;;;;;;;5092356;28;20048;-85
2023/06/08 09:45:57;;;;;;;6.00;4.30;;;;;;;;;;5091918;28;20442;-86
2023/06/08 09:48:24;;;;;;;6.55;4.63;;;;;;;;;;5093056;28;20052;-86
2023/06/08 09:50:59;;;;;;;6.22;4.03;;;;;;;;;;5095673;28;20161;-90
2023/06/08 09:53:28;;;;;;;4.85;4.20;;;;;;;;;;5095482;28;20068;-86
2023/06/08 09:55:58;;;;;;;10.80;5.03;;;;;;;;;;5095718;28;20482;-87
2023/06/08 09:58:29;;;;;;;7.88;4.63;;;;;;;;;;5095760;28;20076;-86
2023/06/08 10:01:00;;;;;;;6.75;4.82;;;;;;;;;;5095470;28;20044;-86
2023/06/08 10:03:33;;;;;;;5.72;5.10;;;;;;;;;;5095634;28;20385;-90
2023/06/08 10:06:00;;;;;;;;;;;;;;;;;;5095825;28;20056;-87
2023/06/08 10:08:28;;;;;;;5.80;5.10;;;;;;;;;;5095413;28;19962;-87
2023/06/08 10:10:56;;;;;;;7.57;5.60;;;;;;;;;;5098351;28;20051;-86
2023/06/08 10:13:23;;;;;;;11.15;5.95;;;;;;;;;;5095213;28;20105;-85
2023/06/08 10:15:52;;;;;;;5.80;5.15;;;;;;;;;;5095308;28;20044;-86
2023/06/08 10:18:24;;;;;;;7.25;5.45;;;;;;;;;;5095539;28;20044;-85
2023/06/08 10:20:52;;;;;;;7.13;5.57;;;;;;;;;;5095001;28;20553;-86
2023/06/08 10:23:20;;;;;;;8.00;5.75;;;;;;;;;;5094971;28;20121;-85
2023/06/08 10:25:50;;;;;;;6.75;5.30;;;;;;;;;;5094933;28;20117;-86
2023/06/08 10:28:20;;;;;;;9.27;5.82;;;;;;;;;;5095323;28;20048;-87
2023/06/08 10:30:48;;;;;;;7.78;5.32;;;;;;;;;;5094386;28;20040;-84
2023/06/08 10:33:19;;;;;;;6.72;5.10;;;;;;;;;;5095595;28;20044;-84
2023/06/08 10:36:05;;;;;;;11.05;5.53;;;;;;;;;;5094998;28;20056;-86
2023/06/08 10:38:56;;;;;;;5.43;4.97;;;;;;;;;;5094947;28;20085;-85
2023/06/08 10:41:38;;;;;;;6.80;6.07;;;;;;;;;;5094578;28;20051;-85
2023/06/08 10:44:06;;;;;;;6.83;6.23;;;;;;;;;;5095774;28;20052;-85
2023/06/08 10:46:40;;;;;;;7.07;6.40;;;;;;;;;;5094436;28;20052;-86
2023/06/08 10:49:07;;;;;;;8.65;6.60;;;;;;;;;;5094489;28;20106;-86
2023/06/08 10:51:43;;;;;;;5.57;5.15;;;;;;;;;;5094683;28;20109;-86
2023/06/08 10:54:20;;;;;;;10.95;6.13;;;;;;;;;;5095340;28;20500;-86
2023/06/08 10:56:53;;;;;;;6.22;5.63;;;;;;;;;;5094873;28;20105;-86
2023/06/08 10:59:40;;;;;;;8.70;5.82;;;;;;;;;;5094269;28;20086;-86
2023/06/08 11:02:08;;;;;;;7.95;5.60;;;;;;;;;;5094291;28;20078;-87
2023/06/08 11:04:37;;;;;;;5.85;5.15;;;;;;;;;;5094021;28;20055;-86
2023/06/08 11:07:25;;;;;;;7.90;5.68;;;;;;;;;;5094803;28;20069;-87
2023/06/08 11:09:53;;;;;;;7.75;6.03;;;;;;;;;;5097902;28;20059;-86
2023/06/08 11:12:20;;;;;;;6.72;5.95;;;;;;;;;;5114532;28;20074;-85
2023/06/08 11:14:48;;;;;;;6.30;5.80;;;;;;;;;;5115453;28;20047;-86
2023/06/08 11:17:15;;;;;;;7.68;6.45;;;;;;;;;;5114602;28;20059;-82
2023/06/08 11:19:42;;;;;;;6.18;5.57;;;;;;;;;;5114530;28;20074;-84
2023/06/08 11:22:10;;;;;;;7.10;5.97;;;;;;;;;;5115517;28;20372;-87
2023/06/08 11:24:37;;;;;;;6.93;5.10;;;;;;;;;;5114354;28;20047;-85
2023/06/08 11:27:05;;;;;;;9.85;5.60;;;;;;;;;;5117855;28;20048;-86
2023/06/08 11:29:32;;;;;;;7.35;5.60;;;;;;;;;;5114427;28;20047;-84
2023/06/08 11:32:12;;;;;;;6.78;5.20;;;;;;;;;;5114607;28;20104;-86
2023/06/08 11:34:45;;;;;;;6.05;4.65;;;;;;;;;;5114145;28;20044;-86
2023/06/08 11:37:18;;;;;;;7.47;4.95;;;;;;;;;;5115665;28;20051;-87
2023/06/08 11:39:46;;;;;;;8.30;4.88;;;;;;;;;;5114179;28;20051;-89
2023/06/08 11:42:14;;;;;;;5.22;4.72;;;;;;;;;;5113770;28;20043;-86
2023/06/08 11:44:41;;;;;;;6.43;4.47;;;;;;;;;;5114134;28;20101;-92
2023/06/08 11:47:09;;;;;;;5.32;5.03;;;;;;;;;;5114073;28;20483;-87
2023/06/08 11:49:57;;;;;;;5.47;4.40;;;;;;;;;;5115475;28;20100;-87
2023/06/08 11:52:25;;;;;;;5.57;4.25;;;;;;;;;;5113622;28;20096;-86
2023/06/08 11:54:53;;;;;;;9.77;4.60;;;;;;;;;;5113688;28;20078;-87
2023/06/08 11:57:21;;;;;;;6.70;3.60;;;;;;;;;;5113911;28;20082;-86
2023/06/08 11:59:50;;;;;;;4.95;3.33;;;;;;;;;;5113840;28;20044;-88
2023/06/08 12:02:25;;;;;;;4.22;3.60;;;;;;;;;;5114771;27;20134;-85
2023/06/08 12:04:58;;;;;;;4.60;3.65;;;;;;;;;;5114151;28;20089;-85
2023/06/08 12:07:26;;;;;;;5.40;4.15;;;;;;;;;;5113923;28;20410;-86
2023/06/08 12:09:53;;;;;;;5.22;3.60;;;;;;;;;;5113874;28;20047;-86
2023/06/08 12:12:22;;;;;;;4.95;3.63;;;;;;;;;;5112712;28;20039;-85
2023/06/08 12:14:49;;;;;;;5.43;3.47;;;;;;;;;;5113059;28;20051;-84
2023/06/08 12:17:16;;;;;;;4.07;3.60;;;;;;;;;;5113586;28;20079;-84
2023/06/08 12:19:47;;;;;;;5.20;3.67;;;;;;;;;;5113135;28;20082;-85
2023/06/08 12:22:15;;;;;;;4.50;3.42;;;;;;;;;;5111714;28;20039;-84
2023/06/08 12:24:42;;;;;;;7.03;3.63;;;;;;;;;;5113308;28;20071;-90
2023/06/08 12:27:10;;;;;;;4.30;3.45;;;;;;;;;;5096521;28;20134;-84
2023/06/08 12:29:37;;;;;;;6.72;3.60;;;;;;;;;;5113830;28;20079;-85
2023/06/08 12:32:05;;;;;;;5.95;3.78;;;;;;;;;;5112439;28;20052;-85
2023/06/08 12:34:33;;;;;;;6.93;3.60;;;;;;;;;;5112975;28;20116;-86
2023/06/08 12:37:00;;;;;;;4.35;3.95;;;;;;;;;;5112974;28;20096;-85
2023/06/08 12:39:28;;;;;;;5.72;3.38;;;;;;;;;;5113340;28;20048;-84
2023/06/08 12:41:57;;;;;;;6.40;3.78;;;;;;;;;;5113903;28;20480;-85
2023/06/08 12:44:25;;;;;;;6.32;4.03;;;;;;;;;;5115636;28;20497;-86
2023/06/08 12:46:53;;;;;;;5.72;3.83;;;;;;;;;;5113051;28;20150;-85
2023/06/08 12:49:22;;;;;;;5.90;4.00;;;;;;;;;;5113260;28;20480;-85
2023/06/08 12:51:49;;;;;;;6.20;4.03;;;;;;;;;;5112833;28;20048;-85
2023/06/08 12:54:16;;;;;;;4.47;4.07;;;;;;;;;;5112796;28;20077;-84
2023/06/08 12:56:44;;;;;;;7.07;3.70;;;;;;;;;;5112647;28;20389;-85
2023/06/08 12:59:11;;;;;;;4.15;3.67;;;;;;;;;;5112333;28;20412;-84
2023/06/08 13:01:38;;;;;;;6.85;3.90;;;;;;;;;;5112293;28;20051;-85
2023/06/08 13:04:06;;;;;;;5.28;3.90;;;;;;;;;;5113950;28;20048;-86
2023/06/08 13:06:33;;;;;;;6.38;4.25;;;;;;;;;;5112884;28;20492;-86
2023/06/08 13:09:00;;;;;;;4.40;3.83;;;;;;;;;;5112899;28;20088;-86
2023/06/08 13:11:27;;;;;;;6.93;4.10;;;;;;;;;;5113153;28;20044;-86
2023/06/08 13:13:55;;;;;;;4.35;3.72;;;;;;;;;;5112683;28;20067;-83
2023/06/08 13:16:22;;;;;;;4.45;4.00;;;;;;;;;;5112926;28;20051;-87
2023/06/08 13:18:52;;;;;;;4.22;3.83;;;;;;;;;;5112330;28;20051;-85
2023/06/08 13:21:20;;;;;;;6.38;4.10;;;;;;;;;;5112715;28;20074;-84
2023/06/08 13:23:48;;;;;;;3.80;3.50;;;;;;;;;;5114731;28;20073;-86
2023/06/08 13:26:17;;;;;;;4.90;3.42;;;;;;;;;;5116632;28;20130;-85
2023/06/08 13:28:45;;;;;;;6.80;3.45;;;;;;;;;;5116285;28;20058;-85
2023/06/08 13:31:12;;;;;;;3.90;3.60;;;;;;;;;;5116231;28;20047;-85
2023/06/08 13:33:40;;;;;;;8.32;3.85;;;;;;;;;;5117659;27;20407;-86
2023/06/08 13:36:07;;;;;;;4.93;3.67;;;;;;;;;;5116621;28;20052;-86
2023/06/08 13:38:34;;;;;;;5.13;3.67;;;;;;;;;;5117218;28;20051;-86
2023/06/08 13:41:02;;;;;;;3.90;3.60;;;;;;;;;;5117107;28;20093;-87
2023/06/08 13:43:29;;;;;;;8.30;3.90;;;;;;;;;;5116237;28;20051;-84
2023/06/08 13:45:58;;;;;;;3.83;3.47;;;;;;;;;;5115866;28;20407;-85
2023/06/08 13:48:28;;;;;;;4.30;3.65;;;;;;;;;;5116102;28;20094;-86
2023/06/08 13:50:56;;;;;;;13.45;4.30;;;;;;;;;;5115750;28;20446;-84
2023/06/08 13:53:24;;;;;;;8.10;3.60;;;;;;;;;;5116030;28;20044;-86
2023/06/08 13:55:51;;;;;;;6.85;3.80;;;;;;;;;;5115600;28;20411;-85
2023/06/08 13:58:18;;;;;;;6.32;3.55;;;;;;;;;;5116188;28;20044;-84
2023/06/08 14:00:46;;;;;;;8.80;4.30;;;;;;;;;;5116228;28;20128;-86
2023/06/08 14:03:13;;;;;;;4.65;3.60;;;;;;;;;;5116712;28;20047;-85
2023/06/08 14:05:40;;;;;;;4.60;3.70;;;;;;;;;;5115335;28;20051;-84
2023/06/08 14:08:07;;;;;;;7.35;3.50;;;;;;;;;;5116351;28;20427;-88
2023/06/08 14:10:35;;;;;;;3.60;3.30;;;;;;;;;;5115816;28;20044;-83
2023/06/08 14:13:02;;;;;;;7.63;3.75;;;;;;;;;;5115527;28;20050;-85
2023/06/08 14:15:29;;;;;;;6.05;3.78;;;;;;;;;;5116171;27;20044;-83
2023/06/08 14:17:57;;;;;;;4.00;3.20;;;;;;;;;;5115343;28;20086;-85
2023/06/08 14:20:27;;;;;;;6.28;3.33;;;;;;;;;;5114941;28;20048;-85
2023/06/08 14:22:56;;;;;;;4.03;3.05;;;;;;;;;;5116538;28;20135;-85
2023/06/08 14:25:23;;;;;;;7.55;3.60;;;;;;;;;;5116040;28;20052;-87
2023/06/08 14:27:50;;;;;;;3.53;3.20;;;;;;;;;;5116311;28;20048;-84
2023/06/08 14:30:18;;;;;;;5.55;3.60;;;;;;;;;;5115185;28;20352;-85
2023/06/08 14:32:45;;;;;;;3.95;3.42;;;;;;;;;;5115537;28;20101;-84
2023/06/08 14:35:12;;;;;;;4.72;3.38;;;;;;;;;;5115289;28;20058;-85
2023/06/08 14:37:39;;;;;;;4.35;3.55;;;;;;;;;;5114824;28;20514;-85
2023/06/08 14:40:07;;;;;;;4.88;3.40;;;;;;;;;;5114827;28;20535;-85
2023/06/08 14:42:35;;;;;;;4.30;3.78;;;;;;;;;;5114950;28;20040;-83
2023/06/08 14:45:02;;;;;;;7.35;3.75;;;;;;;;;;5115601;28;20047;-84
2023/06/08 14:47:30;;;;;;;3.50;3.22;;;;;;;;;;5115956;28;20052;-83
2023/06/08 14:49:57;;;;;;;4.38;3.58;;;;;;;;;;5114582;28;20049;-87